Clinton, WA

19:03 PDT le 28 mai 2015 (GMT -0700)
Campbell's Glen | | Change Station
CLOSE
Current Station
Stations météorologiques personnelles
Location: Clinton, WA
Altitude: 418 ft
Stations météo à proximité

Alt. 418 ft 47.99 °N, 122.39 °W | Updated 3 minutes ago

Ciel dégagé
Ciel dégagé
71.2 ° F
Paraît 76 ° F
N
2.2
Vent Variable Vent de Nord
Gusts 3.8 mph

Aujourd'hui
Haut(e) -- | Bas -- ° F
--% Risque de précip.
Hier
Haut(e) -- | Bas -- ° F
Precip. -- pouce
5:17 AM 8:56 PM
Lune gibbeuse croissante, 80% visible
Pression 30.01 pouce
Visibilité 10.0 Miles terrestres
Nuages Ciel dégagé
indice de chaleur 76 ° F
Point de rosée 56 ° F
Humidité 59%
Précipitations 0.00 pouce
Profondeur de la couche neigeuse Non disponible.
UV 1 sur 12
Pollen 7.70 sur 12
Qualité de l'air Non disponible.
Flu Activity Sporadic
METAR KPAE 290153Z 35006KT 10SM CLR 22/12 A3002 RMK AO2 SLP163 T02170122

More Conditions Fewer Conditions

Pression 30.01 pouce
Visibilité 10.0 Miles terrestres
Nuages Ciel dégagé
indice de chaleur 76 ° F
Point de rosée 56 ° F
Humidité 59%
Précipitations 0.00 pouce
Profondeur de la couche neigeuse Non disponible.
UV 1 sur 12
Pollen 7.70 sur 12
Qualité de l'air Non disponible.
Flu Activity Sporadic
METAR KPAE 290153Z 35006KT 10SM CLR 22/12 A3002 RMK AO2 SLP163 T02170122

More Conditions Fewer Conditions

10-Day Weather Forecast

Almanac

Astronomie

May. 28, 2015 Lever Coucher
Temps réel
Crépuscule civil
Crépuscule nautique
Crépuscule astronomique
Lune
Durée de lumière visible
Longueur du jour
Tomorrow will be .
, % of the Moon is Illuminated

Extrêmes aujourd'hui

State Highs State Lows

Community

WunderPhotos

Upload Photos

1,825,125 Photos téléchargées !

WunderBlogs® & News

Nearby

Qualité de l'air

  Qualité de l'air Indice de la qualité de l'air Polluant
Not available.

Épaisseur de neige

Station Depth Altitude

Activité sismique

Ville Distance Mag. Time & Date
Minimum magnitude displayed is 2.5.

Températures des eaux côtières

Lieu Température

Stations

Stations météo à proximité

Emplacement de la station Température Refroidissement éolien Point de rosée Humidité Vent Precip. Alt. Mise à jour Type